Time;durP1;ratioP1;P1;durP2;ratioP2;P2;SDS_P1;SDS_P2;PMS_P1;PMS_P2;Temp;Humidity;BMP_temperature;BMP_pressure;BME280_temperature;BME280_humidity;BME280_pressure;Samples;Min_cycle;Max_cycle;Signal;HPM_P1;HPM_P2
2023/04/21 00:00:53;;;;;;;36.75;28.20;;;8.60;99.90;;;;;;5029760;28;20502;-36
2023/04/21 00:03:20;;;;;;;35.85;28.90;;;8.60;99.90;;;;;;5036814;28;20593;-35
2023/04/21 00:05:47;;;;;;;30.15;26.90;;;8.60;99.90;;;;;;5036300;28;20071;-35
2023/04/21 00:08:13;;;;;;;32.28;26.45;;;8.60;99.90;;;;;;5035887;28;20045;-38
2023/04/21 00:10:38;;;;;;;33.15;26.95;;;8.70;99.90;;;;;;5035535;28;20049;-36
2023/04/21 00:13:04;;;;;;;33.30;26.90;;;8.70;99.90;;;;;;5036650;28;20543;-41
2023/04/21 00:15:30;;;;;;;32.40;25.77;;;8.70;99.90;;;;;;5036620;28;20045;-40
2023/04/21 00:17:57;;;;;;;33.90;27.05;;;8.80;99.90;;;;;;5036088;28;20056;-40
2023/04/21 00:20:25;;;;;;;33.53;27.20;;;8.80;99.90;;;;;;5023723;28;20045;-40
2023/04/21 00:22:52;;;;;;;34.35;26.83;;;8.80;99.90;;;;;;5035993;28;20105;-39
2023/04/21 00:25:18;;;;;;;32.20;26.25;;;8.80;99.90;;;;;;5036305;28;20044;-42
2023/04/21 00:27:44;;;;;;;29.80;25.08;;;8.80;99.90;;;;;;5035844;28;20210;-40
2023/04/21 00:30:10;;;;;;;27.95;25.02;;;8.80;99.90;;;;;;5025528;28;20085;-42
2023/04/21 00:32:36;;;;;;;30.75;25.20;;;8.90;99.90;;;;;;5035640;28;20490;-38
2023/04/21 00:35:02;;;;;;;38.25;24.98;;;8.80;99.90;;;;;;5035111;28;20243;-36
2023/04/21 00:37:27;;;;;;;31.77;23.67;;;8.80;99.90;;;;;;5035337;28;20052;-38
2023/04/21 00:39:53;;;;;;;29.63;23.63;;;8.80;99.90;;;;;;5036299;28;20263;-35
2023/04/21 00:42:19;;;;;;;30.25;23.90;;;8.80;99.90;;;;;;5035941;28;20051;-45
2023/04/21 00:44:45;;;;;;;31.23;23.98;;;8.80;99.90;;;;;;5034636;28;20504;-41
2023/04/21 00:47:10;;;;;;;29.88;22.23;;;8.80;99.90;;;;;;5035625;28;20091;-42
2023/04/21 00:49:36;;;;;;;31.67;23.05;;;8.70;99.90;;;;;;5035840;28;20047;-36
2023/04/21 00:52:05;;;;;;;24.92;21.60;;;8.70;99.90;;;;;;5033167;28;20089;-39
2023/04/21 00:54:31;;;;;;;32.05;22.02;;;8.70;99.90;;;;;;5051710;28;20423;-42
2023/04/21 00:56:57;;;;;;;28.42;22.63;;;8.60;99.90;;;;;;5036325;28;20144;-35
2023/04/21 00:59:23;;;;;;;25.33;20.73;;;8.60;99.90;;;;;;5035351;28;20084;-39
2023/04/21 01:01:51;;;;;;;27.77;21.88;;;8.60;99.90;;;;;;5021635;28;20383;-37
2023/04/21 01:04:17;;;;;;;26.65;20.80;;;8.50;99.90;;;;;;5035225;28;20041;-36
2023/04/21 01:06:43;;;;;;;24.65;20.63;;;8.50;99.90;;;;;;5050411;28;20055;-40
2023/04/21 01:09:11;;;;;;;28.17;20.80;;;8.50;99.90;;;;;;5034024;28;20123;-35
2023/04/21 01:11:37;;;;;;;27.77;19.80;;;8.50;99.90;;;;;;5034934;28;20053;-43
2023/04/21 01:14:04;;;;;;;29.27;20.83;;;8.50;99.90;;;;;;5051225;28;20057;-40
2023/04/21 01:16:32;;;;;;;27.17;20.75;;;8.50;99.90;;;;;;5036164;28;20052;-38
2023/04/21 01:18:58;;;;;;;24.02;19.98;;;8.50;99.90;;;;;;5035266;28;20399;-45
2023/04/21 01:21:25;;;;;;;30.15;19.67;;;8.40;99.90;;;;;;5026350;28;20069;-42
2023/04/21 01:23:52;;;;;;;24.38;18.80;;;8.40;99.90;;;;;;5029468;28;20049;-39
2023/04/21 01:26:20;;;;;;;25.02;19.98;;;8.40;99.90;;;;;;5025341;28;20041;-36
2023/04/21 01:28:47;;;;;;;22.42;18.90;;;8.40;99.90;;;;;;5046841;28;20053;-38
2023/04/21 01:31:14;;;;;;;22.23;18.38;;;8.40;99.90;;;;;;5025023;28;20041;-40
2023/04/21 01:33:40;;;;;;;24.60;19.25;;;8.40;99.90;;;;;;5035217;28;20049;-39
2023/04/21 01:36:07;;;;;;;24.17;18.70;;;8.40;99.90;;;;;;5028378;28;20573;-41
2023/04/21 01:38:32;;;;;;;24.75;18.85;;;8.40;99.90;;;;;;5018923;28;20139;-36
2023/04/21 01:40:58;;;;;;;26.88;19.65;;;8.40;99.90;;;;;;5034961;28;20045;-40
2023/04/21 01:43:25;;;;;;;25.50;18.67;;;8.40;99.90;;;;;;5035737;28;20037;-37
2023/04/21 01:45:51;;;;;;;26.73;20.33;;;8.30;99.90;;;;;;5036070;28;20426;-42
2023/04/21 01:48:17;;;;;;;24.80;19.27;;;8.30;99.90;;;;;;5034735;28;20525;-36
2023/04/21 01:50:42;;;;;;;23.85;18.75;;;8.30;99.90;;;;;;5037488;28;20041;-38
2023/04/21 01:53:08;;;;;;;24.40;19.42;;;8.30;99.90;;;;;;5037516;28;20476;-41
2023/04/21 01:55:34;;;;;;;22.45;18.00;;;8.30;99.90;;;;;;5030034;28;20053;-43
2023/04/21 01:58:00;;;;;;;24.85;18.80;;;8.30;99.90;;;;;;5020991;28;20076;-37
2023/04/21 02:00:26;;;;;;;24.30;18.77;;;8.40;99.90;;;;;;5027035;28;20072;-44
2023/04/21 02:02:51;;;;;;;22.60;17.77;;;8.40;99.90;;;;;;5035083;28;20530;-38
2023/04/21 02:05:17;;;;;;;20.23;17.75;;;8.40;99.90;;;;;;5039146;28;20550;-36
2023/04/21 02:07:44;;;;;;;24.05;18.63;;;8.50;99.90;;;;;;5024816;28;20045;-37
2023/04/21 02:10:10;;;;;;;25.67;19.10;;;8.50;99.90;;;;;;5038629;28;20045;-38
2023/04/21 02:12:36;;;;;;;24.33;17.65;;;8.50;99.90;;;;;;5037727;28;20044;-41
2023/04/21 02:15:03;;;;;;;22.80;17.13;;;8.40;99.90;;;;;;5038672;28;20037;-37
2023/04/21 02:17:28;;;;;;;22.95;18.52;;;8.40;99.90;;;;;;5037685;28;20045;-41
2023/04/21 02:19:57;;;;;;;25.38;18.00;;;8.40;99.90;;;;;;5037964;28;20037;-45
2023/04/21 02:22:23;;;;;;;26.55;17.25;;;8.40;99.90;;;;;;5037627;28;20363;-36
2023/04/21 02:24:49;;;;;;;21.77;18.35;;;8.40;99.90;;;;;;5043235;28;20038;-42
2023/04/21 02:27:15;;;;;;;24.60;18.13;;;8.30;99.90;;;;;;5034845;28;20946;-38
2023/04/21 02:29:41;;;;;;;22.83;18.23;;;8.30;99.90;;;;;;5038140;28;20053;-36
2023/04/21 02:32:07;;;;;;;26.35;17.75;;;8.30;99.90;;;;;;5005545;28;20053;-41
2023/04/21 02:34:33;;;;;;;23.38;17.23;;;8.30;99.90;;;;;;5038305;28;20526;-37
2023/04/21 02:36:59;;;;;;;22.90;17.45;;;8.30;99.90;;;;;;5034835;28;20042;-38
2023/04/21 02:39:25;;;;;;;21.90;16.92;;;8.30;99.90;;;;;;5029606;28;20051;-43
2023/04/21 02:41:51;;;;;;;21.92;18.23;;;8.20;99.90;;;;;;5049058;28;20549;-39
2023/04/21 02:44:17;;;;;;;21.13;17.17;;;8.20;99.90;;;;;;5029231;28;20127;-39
2023/04/21 02:46:42;;;;;;;24.00;17.50;;;8.20;99.90;;;;;;5032462;28;20081;-40
2023/04/21 02:49:09;;;;;;;24.15;18.27;;;8.20;99.90;;;;;;5044795;28;20132;-39
2023/04/21 02:51:34;;;;;;;23.63;17.85;;;8.20;99.90;;;;;;5032879;28;20087;-42
2023/04/21 02:54:00;;;;;;;22.05;17.65;;;8.10;99.90;;;;;;5037566;28;20049;-37
2023/04/21 02:56:26;;;;;;;23.02;17.67;;;8.10;99.90;;;;;;5038389;28;20052;-39
2023/04/21 02:58:51;;;;;;;25.95;18.30;;;8.10;99.90;;;;;;5033560;28;20510;-36
2023/04/21 03:01:17;;;;;;;24.08;17.25;;;8.10;99.90;;;;;;5032227;28;20186;-38
2023/04/21 03:03:42;;;;;;;24.55;17.48;;;8.10;99.90;;;;;;5038119;28;20037;-41
2023/04/21 03:06:08;;;;;;;23.15;18.25;;;8.10;99.90;;;;;;5038088;28;20041;-38
2023/04/21 03:08:34;;;;;;;24.25;18.58;;;8.10;99.90;;;;;;5037694;28;20495;-35
2023/04/21 03:11:00;;;;;;;23.70;18.30;;;8.10;99.90;;;;;;5019110;28;20412;-38
2023/04/21 03:13:25;;;;;;;21.77;18.33;;;8.10;99.90;;;;;;5027486;28;20033;-40
2023/04/21 03:15:51;;;;;;;23.05;17.50;;;8.10;99.90;;;;;;5038175;28;20178;-35
2023/04/21 03:18:17;;;;;;;19.73;16.95;;;8.00;99.90;;;;;;5027619;28;20045;-34
2023/04/21 03:20:43;;;;;;;25.98;18.42;;;8.00;99.90;;;;;;5033685;28;20053;-37
2023/04/21 03:23:08;;;;;;;25.45;18.02;;;8.00;99.90;;;;;;5037750;28;20060;-39
2023/04/21 03:25:35;;;;;;;25.08;18.88;;;8.00;99.90;;;;;;5036532;28;20049;-44
2023/04/21 03:28:01;;;;;;;20.00;17.77;;;8.00;99.90;;;;;;5037173;28;20045;-37
2023/04/21 03:30:26;;;;;;;23.17;17.77;;;7.90;99.90;;;;;;5025743;28;20449;-37
2023/04/21 03:32:54;;;;;;;23.50;19.35;;;8.00;99.90;;;;;;5036796;28;20213;-34
2023/04/21 03:35:20;;;;;;;27.35;18.67;;;8.10;99.90;;;;;;5037078;28;20053;-38
2023/04/21 03:37:48;;;;;;;25.33;18.67;;;8.10;99.90;;;;;;5026992;28;20045;-40
2023/04/21 03:40:14;;;;;;;26.90;19.05;;;8.20;99.90;;;;;;5030711;28;20332;-37
2023/04/21 03:42:40;;;;;;;21.02;17.25;;;8.20;99.90;;;;;;5027972;28;20044;-36
2023/04/21 03:45:07;;;;;;;25.45;18.58;;;8.10;99.90;;;;;;5037368;28;20049;-39
2023/04/21 03:47:33;;;;;;;22.67;17.17;;;8.20;99.90;;;;;;5037922;28;20131;-42
2023/04/21 03:49:59;;;;;;;24.58;16.73;;;8.20;99.90;;;;;;5037606;28;20183;-40
2023/04/21 03:52:25;;;;;;;24.90;18.33;;;8.20;99.90;;;;;;5035842;28;20750;-41
2023/04/21 03:54:50;;;;;;;24.20;18.08;;;8.20;99.90;;;;;;5037012;28;20048;-44
2023/04/21 03:57:16;;;;;;;25.73;18.63;;;8.20;99.90;;;;;;5036367;28;20686;-36
2023/04/21 03:59:42;;;;;;;21.83;16.40;;;8.20;99.90;;;;;;5028845;28;20128;-38
2023/04/21 04:02:08;;;;;;;22.25;18.00;;;8.20;99.90;;;;;;5036448;28;20461;-37
2023/04/21 04:04:34;;;;;;;23.75;17.95;;;8.30;99.90;;;;;;5023937;28;20436;-40
2023/04/21 04:07:00;;;;;;;21.25;16.27;;;8.40;99.90;;;;;;5024910;28;20063;-36
2023/04/21 04:09:25;;;;;;;25.80;17.50;;;8.40;99.90;;;;;;5033458;28;20045;-39
2023/04/21 04:11:51;;;;;;;25.90;17.60;;;8.50;99.90;;;;;;5036372;28;20045;-37
2023/04/21 04:14:17;;;;;;;22.35;17.33;;;8.40;99.90;;;;;;5034925;28;20045;-36
2023/04/21 04:16:42;;;;;;;22.70;17.27;;;8.50;99.90;;;;;;5036184;28;20100;-36
2023/04/21 04:19:08;;;;;;;28.13;17.98;;;8.40;99.90;;;;;;5036751;28;20056;-37
2023/04/21 04:21:34;;;;;;;28.77;18.83;;;8.40;99.90;;;;;;5036681;28;20554;-40
2023/04/21 04:24:01;;;;;;;23.95;16.80;;;8.40;99.90;;;;;;5036379;28;20052;-41
2023/04/21 04:26:27;;;;;;;23.48;17.65;;;8.40;99.90;;;;;;5037110;28;20052;-43
2023/04/21 04:28:55;;;;;;;26.98;19.23;;;8.40;99.90;;;;;;5036677;28;20388;-37
2023/04/21 04:31:24;;;;;;;21.25;16.98;;;8.40;99.90;;;;;;5036774;28;20049;-37
2023/04/21 04:33:50;;;;;;;24.52;17.80;;;8.40;99.90;;;;;;5018457;28;20052;-44
2023/04/21 04:36:16;;;;;;;26.75;17.95;;;8.40;99.90;;;;;;5040550;28;20141;-42
2023/04/21 04:38:41;;;;;;;27.15;18.05;;;8.40;99.90;;;;;;5032649;28;20041;-39
2023/04/21 04:41:07;;;;;;;22.33;18.05;;;8.40;99.90;;;;;;5035971;28;20049;-40
2023/04/21 04:43:35;;;;;;;22.83;18.23;;;8.40;99.90;;;;;;5035017;28;20145;-34
2023/04/21 04:46:05;;;;;;;23.40;17.90;;;8.30;99.90;;;;;;5037053;28;20325;-38
2023/04/21 04:48:31;;;;;;;21.20;16.73;;;8.30;99.90;;;;;;5037836;28;20041;-38
2023/04/21 04:50:56;;;;;;;20.63;16.35;;;8.30;99.90;;;;;;5034992;28;20055;-38
2023/04/21 04:53:22;;;;;;;26.02;17.13;;;8.20;99.90;;;;;;5036151;28;20037;-35
2023/04/21 04:55:48;;;;;;;22.05;17.55;;;8.20;99.90;;;;;;5035815;28;20045;-39
2023/04/21 04:58:13;;;;;;;21.40;17.02;;;8.20;99.90;;;;;;5035745;28;20960;-36
2023/04/21 05:00:39;;;;;;;23.77;17.08;;;8.30;99.90;;;;;;5031412;28;20042;-35
2023/04/21 05:03:05;;;;;;;24.13;16.92;;;8.30;99.90;;;;;;5034870;28;20051;-43
2023/04/21 05:05:30;;;;;;;19.75;16.83;;;8.30;99.90;;;;;;5036513;28;20040;-42
2023/04/21 05:07:56;;;;;;;24.25;17.17;;;8.30;99.90;;;;;;5035586;28;20059;-37
2023/04/21 05:10:22;;;;;;;23.95;17.25;;;8.40;99.90;;;;;;5035984;28;20048;-35
2023/04/21 05:12:48;;;;;;;20.50;16.17;;;8.50;99.90;;;;;;5035350;28;20474;-42
2023/04/21 05:15:14;;;;;;;20.73;16.17;;;8.50;99.90;;;;;;5024776;28;20053;-36
2023/04/21 05:17:39;;;;;;;21.42;16.10;;;8.70;99.90;;;;;;5034579;28;20084;-38
2023/04/21 05:20:06;;;;;;;19.05;16.60;;;9.00;99.90;;;;;;5035692;28;20531;-39
2023/04/21 05:22:39;;;;;;;20.88;15.30;;;9.60;99.90;;;;;;5036168;28;20033;-35
2023/04/21 05:25:05;;;;;;;25.13;15.38;;;10.10;99.90;;;;;;5037201;28;20045;-46
2023/04/21 05:27:32;;;;;;;19.13;14.38;;;10.60;99.90;;;;;;5026329;28;20108;-41
2023/04/21 05:29:59;;;;;;;18.98;14.52;;;11.20;99.90;;;;;;5025410;28;20509;-41
2023/04/21 05:32:25;;;;;;;24.42;16.73;;;11.50;99.90;;;;;;5040034;28;20179;-46
2023/04/21 05:34:50;;;;;;;19.48;13.77;;;11.90;99.90;;;;;;5039766;28;20555;-41
2023/04/21 05:37:16;;;;;;;16.70;13.57;;;12.00;99.90;;;;;;5039309;28;20047;-41
2023/04/21 05:39:42;;;;;;;17.42;14.50;;;12.20;99.90;;;;;;5039276;28;20049;-38
2023/04/21 05:42:11;;;;;;;20.40;14.80;;;12.30;99.90;;;;;;5039015;28;20107;-36
2023/04/21 05:44:37;;;;;;;18.88;14.02;;;12.20;99.90;;;;;;5039079;28;20044;-39
2023/04/21 05:47:06;;;;;;;20.17;13.88;;;12.30;99.90;;;;;;5038924;28;20045;-37
2023/04/21 05:49:32;;;;;;;16.85;13.43;;;12.70;99.90;;;;;;5039386;28;20111;-41
2023/04/21 05:51:58;;;;;;;20.42;14.18;;;13.10;99.90;;;;;;5038269;28;20459;-38
2023/04/21 05:54:24;;;;;;;22.70;14.00;;;13.60;99.90;;;;;;5039180;28;20041;-39
2023/04/21 05:56:50;;;;;;;16.85;12.85;;;13.80;99.90;;;;;;5038479;28;20041;-38
2023/04/21 05:59:15;;;;;;;16.13;12.52;;;13.90;99.90;;;;;;5039288;28;20045;-39
2023/04/21 06:01:42;;;;;;;19.08;13.98;;;14.00;99.90;;;;;;5037063;28;20087;-38
2023/04/21 06:04:08;;;;;;;20.00;13.68;;;14.10;99.90;;;;;;5054473;28;20045;-40
2023/04/21 06:06:33;;;;;;;15.60;12.60;;;14.40;99.90;;;;;;5037996;28;20081;-37
2023/04/21 06:08:59;;;;;;;18.50;13.50;;;14.50;99.90;;;;;;5024955;28;20056;-40
2023/04/21 06:11:25;;;;;;;18.42;12.50;;;14.50;99.90;;;;;;5037472;28;20041;-42
2023/04/21 06:13:57;;;;;;;20.45;13.45;;;14.40;99.90;;;;;;5038191;28;20082;-40
2023/04/21 06:16:22;;;;;;;17.30;13.80;;;14.60;99.90;;;;;;5035864;28;20044;-43
2023/04/21 06:18:48;;;;;;;14.55;12.52;;;14.80;99.90;;;;;;5040608;28;20041;-44
2023/04/21 06:21:14;;;;;;;15.80;11.48;;;15.10;99.90;;;;;;5030679;28;20471;-43
2023/04/21 06:23:41;;;;;;;17.08;13.60;;;15.20;99.90;;;;;;5028322;28;20427;-43
2023/04/21 06:26:07;;;;;;;18.65;13.02;;;15.20;99.90;;;;;;5036987;28;20044;-39
2023/04/21 06:28:33;;;;;;;18.13;13.07;;;15.30;99.90;;;;;;5036441;28;20049;-40
2023/04/21 06:31:00;;;;;;;17.20;12.80;;;15.50;99.90;;;;;;5037031;28;20614;-38
2023/04/21 06:33:26;;;;;;;15.80;11.80;;;15.80;99.90;;;;;;5036835;28;20178;-40
2023/04/21 06:35:52;;;;;;;15.88;12.30;;;15.80;99.90;;;;;;5037328;28;20519;-38
2023/04/21 06:38:19;;;;;;;19.60;12.25;;;15.80;99.90;;;;;;5023207;28;20052;-40
2023/04/21 06:40:44;;;;;;;15.75;12.02;;;15.80;99.90;;;;;;5052509;28;20037;-42
2023/04/21 06:43:10;;;;;;;15.90;11.48;;;15.90;99.90;;;;;;5037041;28;20041;-42
2023/04/21 06:45:36;;;;;;;16.70;13.52;;;15.90;99.90;;;;;;5036394;28;20626;-42
2023/04/21 06:48:01;;;;;;;16.00;11.05;;;15.50;99.90;;;;;;5036184;28;20060;-41
2023/04/21 06:50:27;;;;;;;18.35;12.55;;;14.70;99.90;;;;;;5036292;28;20052;-41
2023/04/21 06:52:53;;;;;;;14.55;11.60;;;13.80;99.90;;;;;;5036826;28;20195;-40
2023/04/21 06:55:19;;;;;;;14.23;11.27;;;13.20;99.90;;;;;;5035753;28;20103;-40
2023/04/21 06:57:44;;;;;;;18.55;11.27;;;12.70;99.90;;;;;;5036153;28;20390;-42
2023/04/21 07:00:11;;;;;;;19.40;11.82;;;12.40;99.90;;;;;;5034908;28;20128;-40
2023/04/21 07:02:36;;;;;;;16.67;11.40;;;12.10;99.90;;;;;;5025991;28;20052;-38
2023/04/21 07:05:03;;;;;;;17.40;12.32;;;12.00;99.90;;;;;;5037194;28;20040;-38
2023/04/21 07:07:28;;;;;;;20.40;12.48;;;11.80;99.90;;;;;;5051239;28;20048;-40
2023/04/21 07:09:54;;;;;;;17.05;12.48;;;11.80;99.90;;;;;;5033737;28;20061;-45
2023/04/21 07:12:20;;;;;;;17.73;11.70;;;11.80;99.90;;;;;;5035092;28;20505;-37
2023/04/21 07:14:45;;;;;;;15.48;11.45;;;11.80;99.90;;;;;;5040315;28;20057;-36
2023/04/21 07:17:11;;;;;;;18.52;13.00;;;11.90;99.90;;;;;;5026652;28;20124;-41
2023/04/21 07:19:38;;;;;;;18.50;12.40;;;11.80;99.90;;;;;;5036742;28;20387;-39
2023/04/21 07:22:04;;;;;;;19.17;12.82;;;11.80;99.90;;;;;;5035902;28;20041;-40
2023/04/21 07:24:31;;;;;;;19.42;12.57;;;11.80;99.90;;;;;;5036114;28;20047;-37
2023/04/21 07:26:56;;;;;;;19.20;12.68;;;11.70;99.90;;;;;;5035256;28;20118;-45
2023/04/21 07:29:22;;;;;;;17.40;12.63;;;11.60;99.90;;;;;;5030243;28;20033;-40
2023/04/21 07:31:48;;;;;;;15.75;12.48;;;11.50;99.90;;;;;;5030083;28;20041;-40
2023/04/21 07:34:14;;;;;;;16.23;12.57;;;11.60;99.90;;;;;;5030371;28;20382;-37
2023/04/21 07:36:39;;;;;;;18.83;12.75;;;11.50;99.90;;;;;;5030732;28;20467;-42
2023/04/21 07:39:05;;;;;;;19.98;12.48;;;11.50;99.90;;;;;;5037099;28;20122;-40
2023/04/21 07:41:31;;;;;;;17.58;12.65;;;11.60;99.90;;;;;;5051143;28;20905;-39
2023/04/21 07:43:57;;;;;;;16.20;11.63;;;11.60;99.90;;;;;;5028905;28;20052;-42
2023/04/21 07:46:28;;;;;;;17.75;13.15;;;11.60;99.90;;;;;;5030137;28;20461;-37
2023/04/21 07:48:55;;;;;;;25.35;13.40;;;11.70;99.90;;;;;;5036862;28;20520;-47
2023/04/21 07:51:22;;;;;;;19.38;13.57;;;11.70;99.90;;;;;;5034747;28;20041;-38
2023/04/21 07:53:47;;;;;;;18.55;11.95;;;11.70;99.90;;;;;;5036696;28;20045;-41
2023/04/21 07:56:13;;;;;;;18.10;12.82;;;11.70;99.90;;;;;;5036744;28;20056;-35
2023/04/21 07:58:38;;;;;;;18.33;12.90;;;11.80;99.90;;;;;;5034432;28;20453;-39
2023/04/21 08:01:04;;;;;;;15.82;12.45;;;11.90;99.90;;;;;;5035366;28;20052;-43
2023/04/21 08:03:30;;;;;;;18.65;12.45;;;12.00;99.90;;;;;;5044657;28;20228;-41
2023/04/21 08:05:55;;;;;;;17.25;12.50;;;12.00;99.90;;;;;;5031287;28;20045;-41
2023/04/21 08:08:21;;;;;;;17.33;12.90;;;12.10;99.90;;;;;;5036743;28;20056;-39
2023/04/21 08:10:47;;;;;;;16.67;12.38;;;12.20;99.90;;;;;;5035787;28;20048;-40
2023/04/21 08:13:12;;;;;;;19.38;13.93;;;12.30;99.90;;;;;;5035733;28;20064;-39
2023/04/21 08:15:38;;;;;;;19.17;12.63;;;12.40;99.90;;;;;;5036281;28;20476;-41
2023/04/21 08:18:04;;;;;;;22.20;13.48;;;12.40;99.90;;;;;;5034364;28;20171;-36
2023/04/21 08:20:29;;;;;;;17.27;13.10;;;12.60;99.90;;;;;;5035153;28;20404;-42
2023/04/21 08:22:55;;;;;;;17.27;13.20;;;12.70;99.90;;;;;;5028789;28;20049;-45
2023/04/21 08:25:21;;;;;;;17.48;13.25;;;12.80;99.90;;;;;;5031441;28;20455;-43
2023/04/21 08:27:47;;;;;;;22.30;14.02;;;12.90;99.90;;;;;;5035343;28;20982;-38
2023/04/21 08:30:13;;;;;;;15.95;12.98;;;12.80;99.90;;;;;;5023990;28;20400;-40
2023/04/21 08:32:38;;;;;;;22.00;13.25;;;12.90;99.90;;;;;;5027883;28;20395;-44
2023/04/21 08:35:04;;;;;;;19.75;14.23;;;12.90;99.90;;;;;;5029224;28;20041;-37
2023/04/21 08:37:30;;;;;;;17.83;13.32;;;13.00;99.90;;;;;;5035389;28;20045;-40
2023/04/21 08:39:56;;;;;;;17.17;13.23;;;13.10;99.90;;;;;;5035435;28;20049;-43
2023/04/21 08:42:21;;;;;;;19.25;12.85;;;13.10;99.90;;;;;;5034814;28;20045;-39
2023/04/21 08:44:47;;;;;;;20.75;13.68;;;13.10;99.90;;;;;;5033801;28;20136;-40
2023/04/21 08:47:14;;;;;;;18.15;13.43;;;13.20;99.90;;;;;;5026272;28;20515;-37
2023/04/21 08:49:44;;;;;;;19.13;13.10;;;13.30;99.90;;;;;;5034387;28;20048;-44
2023/04/21 08:52:12;;;;;;;21.75;13.25;;;13.40;99.90;;;;;;5035764;28;20056;-43
2023/04/21 08:54:39;;;;;;;16.23;13.57;;;13.50;99.90;;;;;;5035723;28;20056;-39
2023/04/21 08:57:04;;;;;;;18.92;12.98;;;13.70;99.90;;;;;;5042135;28;20056;-44
2023/04/21 08:59:30;;;;;;;23.13;13.57;;;13.80;99.90;;;;;;5044593;28;20049;-40
2023/04/21 09:02:09;;;;;;;21.40;14.63;;;13.90;99.90;;;;;;5026350;28;20056;-42
2023/04/21 09:04:43;;;;;;;18.77;13.18;;;13.90;99.90;;;;;;5032154;28;20041;-41
2023/04/21 09:07:09;;;;;;;16.17;13.73;;;14.00;99.90;;;;;;5035129;28;20085;-39
2023/04/21 09:09:54;;;;;;;18.33;13.48;;;14.20;99.90;;;;;;5035672;28;20767;-44
2023/04/21 09:12:20;;;;;;;16.77;13.55;;;14.30;99.90;;;;;;5033356;28;20049;-46
2023/04/21 09:14:46;;;;;;;18.58;13.20;;;14.40;99.90;;;;;;5034978;28;20167;-39
2023/04/21 09:17:14;;;;;;;15.55;13.30;;;14.50;99.90;;;;;;5034779;28;20041;-47
2023/04/21 09:19:39;;;;;;;18.27;13.18;;;14.70;99.90;;;;;;5050707;28;20090;-42
2023/04/21 09:22:05;;;;;;;17.27;12.95;;;14.80;99.90;;;;;;5020617;28;20045;-40
2023/04/21 09:24:31;;;;;;;19.00;12.85;;;14.90;99.90;;;;;;5036194;28;20424;-40
2023/04/21 09:26:57;;;;;;;17.20;13.48;;;14.90;99.90;;;;;;5033620;28;20053;-39
2023/04/21 09:29:24;;;;;;;16.77;13.55;;;14.90;99.90;;;;;;5029867;28;20061;-38
2023/04/21 09:31:50;;;;;;;18.08;13.23;;;15.00;99.90;;;;;;5028307;28;20083;-38
2023/04/21 09:34:23;;;;;;;20.17;12.77;;;15.10;99.90;;;;;;5031371;28;20060;-40
2023/04/21 09:37:03;;;;;;;20.55;13.95;;;15.20;99.90;;;;;;5029145;28;20096;-40
2023/04/21 09:39:30;;;;;;;19.73;12.88;;;15.20;99.90;;;;;;5034702;28;20081;-39
2023/04/21 09:41:57;;;;;;;20.88;13.93;;;15.10;99.90;;;;;;5019700;28;20113;-42
2023/04/21 09:44:27;;;;;;;15.02;12.93;;;15.20;99.90;;;;;;5034881;28;20114;-41
2023/04/21 09:47:00;;;;;;;18.90;13.02;;;15.20;99.90;;;;;;5021601;28;20128;-42
2023/04/21 09:49:28;;;;;;;19.70;13.30;;;15.20;99.90;;;;;;5050508;28;20061;-44
2023/04/21 09:51:56;;;;;;;19.75;12.77;;;15.30;99.90;;;;;;5033737;28;20949;-44
2023/04/21 09:54:28;;;;;;;20.77;13.48;;;15.40;99.90;;;;;;5033682;28;20525;-37
2023/04/21 09:56:56;;;;;;;17.98;12.80;;;15.50;99.90;;;;;;5034691;28;20407;-45
2023/04/21 09:59:28;;;;;;;19.55;13.35;;;15.60;99.90;;;;;;5020823;28;20053;-38
2023/04/21 10:01:56;;;;;;;17.30;13.30;;;15.70;99.90;;;;;;5014412;28;20053;-39
2023/04/21 10:04:23;;;;;;;16.70;13.73;;;15.90;99.90;;;;;;5030355;28;20666;-37
2023/04/21 10:06:50;;;;;;;16.33;13.05;;;16.20;99.90;;;;;;5034672;28;20048;-42
2023/04/21 10:09:20;;;;;;;24.83;14.00;;;16.40;99.90;;;;;;5034456;28;20067;-45
2023/04/21 10:11:46;;;;;;;17.98;13.43;;;16.50;99.90;;;;;;5027466;28;20049;-37
2023/04/21 10:14:12;;;;;;;18.55;12.57;;;16.50;99.90;;;;;;5034234;28;20080;-44
2023/04/21 10:16:38;;;;;;;15.88;13.00;;;16.50;99.90;;;;;;5037541;28;20515;-39
2023/04/21 10:19:24;;;;;;;17.27;12.98;;;16.50;99.90;;;;;;5033403;28;20057;-43
2023/04/21 10:21:50;;;;;;;15.88;12.77;;;16.70;99.90;;;;;;5030218;28;20049;-40
2023/04/21 10:24:16;;;;;;;21.13;13.10;;;16.90;99.90;;;;;;5038472;28;20471;-42
2023/04/21 10:26:41;;;;;;;15.05;12.05;;;17.00;99.90;;;;;;5037862;28;20091;-39
2023/04/21 10:29:10;;;;;;;17.15;12.95;;;17.00;99.90;;;;;;5032568;28;20049;-41
2023/04/21 10:31:43;;;;;;;20.92;12.85;;;17.00;99.90;;;;;;5030250;28;20226;-40
2023/04/21 10:34:09;;;;;;;16.40;13.00;;;17.00;99.90;;;;;;5024985;28;20483;-45
2023/04/21 10:36:41;;;;;;;25.13;12.57;;;17.10;99.90;;;;;;5037352;28;20517;-41
2023/04/21 10:39:07;;;;;;;17.27;12.18;;;17.10;99.90;;;;;;5029677;28;20342;-37
2023/04/21 10:41:34;;;;;;;17.30;12.82;;;17.30;99.90;;;;;;5032841;28;20045;-37
2023/04/21 10:44:10;;;;;;;15.20;11.52;;;17.50;99.90;;;;;;5037502;28;20056;-40
2023/04/21 10:46:38;;;;;;;19.63;12.88;;;17.70;99.90;;;;;;5036569;28;20469;-42
2023/04/21 10:49:08;;;;;;;18.60;12.07;;;17.70;99.90;;;;;;5028108;28;20106;-45
2023/04/21 10:51:56;;;;;;;13.88;11.00;;;17.60;99.90;;;;;;5039718;28;20463;-37
2023/04/21 10:54:26;;;;;;;14.25;11.88;;;17.50;99.90;;;;;;5033322;28;20048;-43
2023/04/21 10:56:53;;;;;;;18.25;12.68;;;17.10;99.90;;;;;;5034098;28;20526;-39
2023/04/21 10:59:20;;;;;;;17.40;13.00;;;16.90;99.90;;;;;;5029862;28;20057;-45
2023/04/21 11:01:46;;;;;;;15.93;12.30;;;16.70;99.90;;;;;;5035720;28;20495;-42
2023/04/21 11:04:19;;;;;;;15.10;12.60;;;16.60;99.90;;;;;;5034585;28;20041;-41
2023/04/21 11:07:22;;;;;;;18.50;13.68;;;16.70;99.90;;;;;;5030709;28;20042;-43
2023/04/21 11:09:55;;;;;;;20.23;13.32;;;16.80;99.90;;;;;;4967104;28;20058;-43
2023/04/21 11:12:21;;;;;;;15.13;12.25;;;16.80;99.90;;;;;;4955173;28;20712;-41
2023/04/21 11:14:47;;;;;;;17.30;13.90;;;16.90;99.90;;;;;;4940874;28;20099;-37
2023/04/21 11:17:15;;;;;;;18.60;12.80;;;17.00;99.90;;;;;;4957211;28;20047;-37
2023/04/21 11:19:44;;;;;;;17.90;12.60;;;17.10;99.90;;;;;;4955308;28;20415;-45
2023/04/21 11:22:09;;;;;;;19.33;14.07;;;17.30;99.90;;;;;;4970535;28;20064;-45
2023/04/21 11:24:35;;;;;;;14.70;12.90;;;17.50;99.90;;;;;;4965233;28;20445;-44
2023/04/21 11:27:01;;;;;;;16.30;13.35;;;17.70;99.90;;;;;;4959602;28;20062;-42
2023/04/21 11:29:30;;;;;;;19.10;14.25;;;17.70;99.90;;;;;;4970866;28;20406;-39
2023/04/21 11:31:57;;;;;;;16.55;13.55;;;17.80;99.90;;;;;;4959908;28;20053;-44
2023/04/21 11:34:26;;;;;;;21.73;14.13;;;17.90;99.90;;;;;;4964474;28;20125;-37
2023/04/21 11:36:52;;;;;;;17.30;13.77;;;18.00;99.90;;;;;;4971880;28;20050;-41
2023/04/21 11:39:19;;;;;;;16.52;12.48;;;18.00;99.90;;;;;;4964105;28;20217;-38
2023/04/21 11:41:48;;;;;;;15.70;11.95;;;17.90;99.90;;;;;;4958920;28;20069;-47
2023/04/21 11:44:33;;;;;;;16.25;13.23;;;17.90;99.90;;;;;;4974541;28;20136;-42
2023/04/21 11:46:59;;;;;;;17.88;12.50;;;17.80;99.90;;;;;;5027817;28;20053;-46
2023/04/21 11:49:29;;;;;;;17.10;13.45;;;17.80;99.90;;;;;;5034209;28;20463;-48
2023/04/21 11:51:55;;;;;;;21.60;14.02;;;17.70;99.90;;;;;;5026355;28;20107;-46
2023/04/21 11:54:23;;;;;;;18.75;14.30;;;17.60;99.90;;;;;;5037063;28;20491;-46
2023/04/21 11:56:49;;;;;;;21.75;13.23;;;17.60;99.90;;;;;;5036146;28;20052;-43
2023/04/21 11:59:18;;;;;;;16.95;12.80;;;17.50;99.90;;;;;;5027037;28;20211;-48
2023/04/21 12:01:52;;;;;;;17.50;13.57;;;17.60;99.90;;;;;;5023030;28;20068;-37
2023/04/21 12:04:24;;;;;;;18.75;13.52;;;17.90;99.90;;;;;;5030726;28;20402;-40
2023/04/21 12:07:00;;;;;;;19.70;13.35;;;18.20;99.90;;;;;;5025824;28;20143;-41
2023/04/21 12:09:27;;;;;;;13.52;12.02;;;18.40;99.90;;;;;;5019607;28;20084;-44
2023/04/21 12:11:56;;;;;;;15.93;13.95;;;18.70;99.90;;;;;;5035696;28;20590;-38
2023/04/21 12:14:24;;;;;;;16.83;11.88;;;18.90;99.90;;;;;;5032266;28;20057;-40
2023/04/21 12:16:57;;;;;;;16.85;11.95;;;18.70;99.90;;;;;;5026069;28;20057;-44
2023/04/21 12:19:38;;;;;;;18.05;11.57;;;18.60;99.90;;;;;;5035609;28;20053;-38
2023/04/21 12:22:11;;;;;;;16.90;11.02;;;18.50;99.90;;;;;;5035344;28;20511;-37
2023/04/21 12:24:38;;;;;;;13.30;10.55;;;18.40;99.90;;;;;;5031743;28;20128;-43
2023/04/21 12:27:05;;;;;;;11.90;9.95;;;18.30;99.90;;;;;;5022814;28;20479;-37
2023/04/21 12:29:31;;;;;;;14.65;10.30;;;18.20;99.90;;;;;;5029470;28;20100;-43